createdAt,value
2019-01-30T00:02:21.770Z,14.00
2019-01-30T00:04:49.011Z,13.40
2019-01-30T00:07:16.280Z,14.07
2019-01-30T00:09:43.819Z,12.20
2019-01-30T00:12:11.059Z,11.10
2019-01-30T00:14:38.493Z,11.13
2019-01-30T00:17:05.760Z,10.27
2019-01-30T00:19:33.012Z,13.37
2019-01-30T00:22:00.359Z,11.37
2019-01-30T00:24:27.610Z,9.97
2019-01-30T00:26:54.884Z,15.33
2019-01-30T00:29:22.143Z,15.07
2019-01-30T00:31:49.656Z,11.40
2019-01-30T00:34:17.193Z,10.70
2019-01-30T00:36:44.466Z,9.47
2019-01-30T00:39:11.739Z,12.60
2019-01-30T00:41:39.025Z,12.40
2019-01-30T00:44:06.627Z,16.47
2019-01-30T00:46:33.903Z,12.60
2019-01-30T00:49:01.165Z,9.70
2019-01-30T00:51:28.408Z,12.57
2019-01-30T00:53:55.697Z,13.20
2019-01-30T00:56:23.051Z,17.17
2019-01-30T00:58:50.380Z,14.60
2019-01-30T01:01:17.668Z,12.70
2019-01-30T01:03:45.048Z,14.60
2019-01-30T01:06:12.393Z,13.20
2019-01-30T01:08:39.961Z,14.70
2019-01-30T01:11:07.408Z,10.87
2019-01-30T01:13:34.696Z,13.83
2019-01-30T01:16:02.264Z,14.00
2019-01-30T01:18:29.772Z,12.80
2019-01-30T01:20:57.271Z,12.47
2019-01-30T01:23:24.538Z,11.60
2019-01-30T01:25:51.717Z,14.90
2019-01-30T01:28:19.082Z,12.93
2019-01-30T01:30:46.340Z,13.77
2019-01-30T01:33:13.693Z,12.37
2019-01-30T01:35:40.967Z,13.23
2019-01-30T01:38:08.467Z,17.33
2019-01-30T01:40:35.718Z,15.67
2019-01-30T01:43:03.100Z,19.53
2019-01-30T01:45:30.331Z,13.63
2019-01-30T01:47:57.707Z,11.53
2019-01-30T01:50:25.084Z,12.23
2019-01-30T01:52:52.359Z,14.17
2019-01-30T01:55:19.878Z,16.80
2019-01-30T01:57:47.256Z,15.07
2019-01-30T02:00:18.787Z,16.80
2019-01-30T02:02:46.144Z,16.07
2019-01-30T02:05:14.484Z,14.57
2019-01-30T02:07:41.744Z,17.90
2019-01-30T02:10:10.160Z,12.37
2019-01-30T02:12:37.427Z,13.93
2019-01-30T02:15:05.705Z,15.23
2019-01-30T02:17:32.950Z,17.90
2019-01-30T02:20:00.321Z,14.77
2019-01-30T02:22:27.662Z,13.03
2019-01-30T02:24:55.151Z,9.73
2019-01-30T02:27:22.407Z,16.23
2019-01-30T02:29:49.670Z,14.90
2019-01-30T02:32:17.453Z,14.43
2019-01-30T02:34:44.729Z,16.20
2019-01-30T02:37:11.995Z,12.10
2019-01-30T02:39:39.232Z,13.77
2019-01-30T02:42:06.497Z,13.77
2019-01-30T02:44:33.866Z,17.23
2019-01-30T02:47:01.391Z,20.27
2019-01-30T02:49:28.666Z,14.00
2019-01-30T02:51:55.949Z,17.43
2019-01-30T02:54:23.287Z,13.93
2019-01-30T02:56:50.899Z,13.77
2019-01-30T02:59:18.173Z,18.40
2019-01-30T03:02:04.929Z,15.60
2019-01-30T03:04:32.192Z,14.23
2019-01-30T03:06:59.494Z,16.93
2019-01-30T03:09:27.364Z,20.07
2019-01-30T03:11:54.633Z,14.10
2019-01-30T03:14:22.170Z,14.20
2019-01-30T03:16:49.709Z,15.17
2019-01-30T03:19:17.248Z,14.30
2019-01-30T03:21:44.614Z,12.20
2019-01-30T03:24:12.245Z,14.60
2019-01-30T03:26:40.077Z,20.83
2019-01-30T03:29:07.335Z,11.60
2019-01-30T03:31:34.694Z,15.70
2019-01-30T03:34:02.000Z,18.53
2019-01-30T03:36:29.777Z,22.57
2019-01-30T03:38:57.031Z,15.73
2019-01-30T03:41:24.303Z,17.93
2019-01-30T03:43:51.632Z,14.87
2019-01-30T03:46:18.884Z,14.73
2019-01-30T03:48:46.149Z,12.87
2019-01-30T03:51:13.393Z,16.17
2019-01-30T03:53:40.653Z,13.73
2019-01-30T03:56:07.816Z,15.50
2019-01-30T03:58:35.182Z,14.70
2019-01-30T04:01:02.555Z,15.17
2019-01-30T04:03:30.084Z,14.73
2019-01-30T04:05:57.660Z,11.90
2019-01-30T04:08:24.947Z,15.23
2019-01-30T04:10:52.225Z,16.93
2019-01-30T04:13:19.462Z,10.97
2019-01-30T04:15:46.782Z,11.60
2019-01-30T04:18:14.040Z,11.70
2019-01-30T04:20:41.289Z,13.90
2019-01-30T04:23:08.538Z,13.67
2019-01-30T04:25:35.801Z,14.40
2019-01-30T04:28:03.380Z,14.10
2019-01-30T04:30:30.635Z,19.33
2019-01-30T04:32:57.887Z,12.73
2019-01-30T04:35:25.134Z,16.30
2019-01-30T04:37:52.415Z,14.33
2019-01-30T04:40:19.950Z,13.50
2019-01-30T04:42:47.322Z,18.73
2019-01-30T04:45:16.108Z,17.03
2019-01-30T04:47:43.714Z,12.10
2019-01-30T04:50:11.314Z,11.50
2019-01-30T04:52:38.584Z,15.60
2019-01-30T04:55:06.595Z,12.17
2019-01-30T04:57:33.960Z,11.73
2019-01-30T05:00:01.225Z,13.97
2019-01-30T05:02:29.091Z,15.80
2019-01-30T05:04:56.360Z,14.53
2019-01-30T05:07:23.624Z,12.13
2019-01-30T05:09:50.903Z,16.10
2019-01-30T05:12:18.167Z,13.80
2019-01-30T05:14:45.418Z,13.03
2019-01-30T05:17:12.748Z,14.10
2019-01-30T05:19:40.050Z,14.17
2019-01-30T05:22:07.288Z,13.93
2019-01-30T05:24:34.576Z,17.23
2019-01-30T05:27:01.822Z,15.40
2019-01-30T05:29:29.176Z,15.80
2019-01-30T05:32:01.313Z,17.93
2019-01-30T05:34:25.694Z,14.00
2019-01-30T05:36:52.946Z,14.90
2019-01-30T05:39:20.215Z,18.07
2019-01-30T05:41:47.550Z,14.63
2019-01-30T05:44:15.466Z,15.77
2019-01-30T05:46:43.120Z,16.57
2019-01-30T05:49:10.733Z,13.67
2019-01-30T05:51:38.034Z,19.47
2019-01-30T05:54:05.380Z,16.87
2019-01-30T05:56:32.669Z,16.03
2019-01-30T05:59:00.030Z,11.03
2019-01-30T06:01:27.583Z,15.20
2019-01-30T06:03:54.834Z,15.47
2019-01-30T06:06:22.188Z,11.23
2019-01-30T06:08:49.467Z,14.37
2019-01-30T06:11:17.983Z,13.93
2019-01-30T06:13:45.324Z,14.90
2019-01-30T06:16:12.577Z,12.27
2019-01-30T06:18:39.841Z,12.00
2019-01-30T06:21:07.238Z,15.80
2019-01-30T06:23:34.511Z,13.73
2019-01-30T06:26:02.023Z,15.27
2019-01-30T06:28:29.520Z,19.23
2019-01-30T06:30:56.872Z,13.43
2019-01-30T06:33:24.037Z,12.67
2019-01-30T06:35:51.406Z,17.07
2019-01-30T06:38:18.633Z,19.60
2019-01-30T06:40:45.909Z,15.13
2019-01-30T06:43:13.276Z,13.60
2019-01-30T06:45:40.528Z,16.23
2019-01-30T06:48:07.808Z,16.67
2019-01-30T06:50:35.089Z,17.03
2019-01-30T06:53:02.338Z,13.30
2019-01-30T06:55:29.936Z,16.50
2019-01-30T06:57:57.493Z,20.07
2019-01-30T07:00:25.327Z,20.93
2019-01-30T07:02:53.664Z,18.87
2019-01-30T07:05:21.198Z,20.93
2019-01-30T07:07:48.493Z,23.70
2019-01-30T07:10:17.328Z,18.30
2019-01-30T07:12:44.953Z,19.70
2019-01-30T07:15:12.870Z,21.23
2019-01-30T07:17:40.145Z,21.20
2019-01-30T07:20:07.503Z,22.97
2019-01-30T07:22:34.743Z,24.53
2019-01-30T07:25:02.018Z,25.83
2019-01-30T07:27:29.387Z,19.80
2019-01-30T07:29:57.605Z,26.60
2019-01-30T07:32:24.957Z,20.37
2019-01-30T07:34:52.361Z,24.87
2019-01-30T07:37:19.718Z,17.43
2019-01-30T07:39:47.339Z,29.23
2019-01-30T07:42:14.913Z,22.87
2019-01-30T07:44:50.506Z,17.53
2019-01-30T07:47:11.330Z,17.30
2019-01-30T07:49:38.842Z,21.70
2019-01-30T07:52:06.389Z,20.43
2019-01-30T07:54:33.633Z,36.70
2019-01-30T07:57:01.247Z,22.13
2019-01-30T07:59:28.629Z,20.00
2019-01-30T08:01:55.854Z,20.50
2019-01-30T08:04:23.138Z,23.47
2019-01-30T08:06:50.935Z,21.43
2019-01-30T08:09:18.492Z,18.37
2019-01-30T08:11:45.752Z,19.63
2019-01-30T08:14:13.094Z,21.80
2019-01-30T08:16:40.458Z,22.13
2019-01-30T08:19:07.983Z,25.23
2019-01-30T08:21:35.251Z,22.33
2019-01-30T08:24:02.990Z,19.03
2019-01-30T08:26:30.471Z,25.60
2019-01-30T08:28:57.844Z,27.13
2019-01-30T08:31:25.711Z,23.20
2019-01-30T08:33:53.277Z,21.87
2019-01-30T08:36:20.798Z,25.00
2019-01-30T08:38:49.130Z,24.10
2019-01-30T08:41:16.761Z,25.67
2019-01-30T08:43:44.274Z,24.63
2019-01-30T08:46:11.576Z,25.07
2019-01-30T08:48:38.932Z,28.63
2019-01-30T08:51:06.195Z,25.77
2019-01-30T08:53:33.447Z,26.10
2019-01-30T08:56:01.074Z,22.43
2019-01-30T08:58:28.372Z,26.50
2019-01-30T09:00:55.770Z,30.13
2019-01-30T09:03:23.148Z,25.80
2019-01-30T09:05:50.545Z,21.13
2019-01-30T09:08:17.920Z,28.13
2019-01-30T09:10:45.288Z,25.27
2019-01-30T09:13:12.716Z,29.40
2019-01-30T09:15:40.124Z,31.93
2019-01-30T09:18:08.207Z,28.63
2019-01-30T09:20:35.812Z,29.27
2019-01-30T09:23:03.198Z,29.73
2019-01-30T09:25:30.485Z,30.57
2019-01-30T09:27:58.365Z,29.50
2019-01-30T09:30:26.790Z,31.07
2019-01-30T09:32:55.468Z,28.30
2019-01-30T09:35:23.156Z,30.53
2019-01-30T09:37:50.512Z,28.07
2019-01-30T09:40:17.781Z,34.03
2019-01-30T09:42:45.745Z,32.17
2019-01-30T09:45:13.624Z,36.77
2019-01-30T09:47:40.905Z,35.43
2019-01-30T09:50:09.369Z,32.53
2019-01-30T09:52:36.702Z,40.30
2019-01-30T09:55:04.526Z,33.77
2019-01-30T09:57:31.875Z,33.93
2019-01-30T09:59:59.131Z,34.73
2019-01-30T10:02:26.412Z,45.63
2019-01-30T10:04:54.015Z,49.40
2019-01-30T10:07:21.249Z,45.23
2019-01-30T10:09:48.523Z,61.07
2019-01-30T10:12:16.112Z,61.93
2019-01-30T10:14:43.384Z,65.83
2019-01-30T10:17:10.735Z,66.03
2019-01-30T10:19:41.419Z,66.10
2019-01-30T10:22:07.433Z,61.63
2019-01-30T10:24:34.786Z,56.17
2019-01-30T10:27:02.395Z,54.30
2019-01-30T10:29:30.082Z,62.27
2019-01-30T10:31:57.331Z,53.13
2019-01-30T10:34:24.596Z,57.00
2019-01-30T10:36:51.880Z,49.87
2019-01-30T10:39:19.167Z,48.90
2019-01-30T10:41:46.435Z,44.13
2019-01-30T10:44:14.003Z,51.67
2019-01-30T10:46:41.277Z,45.57
2019-01-30T10:49:08.824Z,46.80
2019-01-30T10:51:36.149Z,44.27
2019-01-30T10:54:03.630Z,48.70
2019-01-30T10:56:30.890Z,42.50
2019-01-30T10:58:58.166Z,43.33
2019-01-30T11:01:25.419Z,38.50
2019-01-30T11:03:57.340Z,41.50
2019-01-30T11:06:21.857Z,40.90
2019-01-30T11:08:49.388Z,44.10
2019-01-30T11:11:16.731Z,47.37
2019-01-30T11:13:44.549Z,42.10
2019-01-30T11:16:11.818Z,39.17
2019-01-30T11:18:39.107Z,37.03
2019-01-30T11:21:06.652Z,35.83
2019-01-30T11:23:33.915Z,39.67
2019-01-30T11:26:01.313Z,38.33
2019-01-30T11:28:28.694Z,38.33
2019-01-30T11:30:55.958Z,36.50
2019-01-30T11:33:23.243Z,37.17
2019-01-30T11:35:50.510Z,34.93
2019-01-30T11:38:17.869Z,31.13
2019-01-30T11:40:45.140Z,36.13
2019-01-30T11:43:12.772Z,36.90
2019-01-30T11:45:40.839Z,33.23
2019-01-30T11:48:08.296Z,36.70
2019-01-30T11:50:36.306Z,34.30
2019-01-30T11:53:03.957Z,41.40
2019-01-30T11:55:31.578Z,34.63
2019-01-30T11:57:58.837Z,36.20
2019-01-30T12:00:46.260Z,34.63
2019-01-30T12:03:13.638Z,35.10
2019-01-30T12:05:41.478Z,43.23
2019-01-30T12:08:08.794Z,38.93
2019-01-30T12:10:36.414Z,42.93
2019-01-30T12:13:04.094Z,41.77
2019-01-30T12:15:31.340Z,41.20
2019-01-30T12:17:58.596Z,35.33
2019-01-30T12:20:26.237Z,35.30
2019-01-30T12:22:53.600Z,31.43
2019-01-30T12:25:21.067Z,32.70
2019-01-30T12:27:50.786Z,35.33
2019-01-30T12:30:18.734Z,35.60
2019-01-30T12:32:46.065Z,33.53
2019-01-30T12:35:13.618Z,35.80
2019-01-30T12:37:40.893Z,30.30
2019-01-30T12:40:08.709Z,38.77
2019-01-30T12:42:36.055Z,39.43
2019-01-30T12:45:05.347Z,37.10
2019-01-30T12:47:32.737Z,35.83
2019-01-30T12:50:00.320Z,29.80
2019-01-30T12:52:27.704Z,32.73
2019-01-30T12:54:54.983Z,32.10
2019-01-30T12:57:41.835Z,36.63
2019-01-30T13:00:11.102Z,45.77
2019-01-30T13:02:38.614Z,33.77
2019-01-30T13:05:06.404Z,34.00
2019-01-30T13:07:33.661Z,39.87
2019-01-30T13:10:01.363Z,38.27
2019-01-30T13:12:28.644Z,38.80
2019-01-30T13:14:55.919Z,38.17
2019-01-30T13:17:23.264Z,41.10
2019-01-30T13:20:10.010Z,48.87
2019-01-30T13:22:37.264Z,48.30
2019-01-30T13:25:04.671Z,51.20
2019-01-30T13:27:31.937Z,43.90
2019-01-30T13:29:59.293Z,50.43
2019-01-30T13:32:26.635Z,49.83
2019-01-30T13:34:54.167Z,48.53
2019-01-30T13:37:21.797Z,47.87
2019-01-30T13:39:49.384Z,39.73
2019-01-30T13:42:16.748Z,42.30
2019-01-30T13:44:44.004Z,46.93
2019-01-30T13:47:11.407Z,46.63
2019-01-30T13:49:38.692Z,36.40
2019-01-30T13:52:06.050Z,36.40
2019-01-30T13:54:33.391Z,36.17
2019-01-30T13:57:00.769Z,31.17
2019-01-30T13:59:47.586Z,32.17
2019-01-30T14:02:14.936Z,32.47
2019-01-30T14:04:42.234Z,29.13
2019-01-30T14:07:09.652Z,27.87
2019-01-30T14:09:36.998Z,30.17
2019-01-30T14:12:04.401Z,29.50
2019-01-30T14:14:31.664Z,28.80
2019-01-30T14:16:59.346Z,23.77
2019-01-30T14:19:26.942Z,27.87
2019-01-30T14:21:54.349Z,26.37
2019-01-30T14:24:21.727Z,25.27
2019-01-30T14:26:49.628Z,26.53
2019-01-30T14:29:17.358Z,24.07
2019-01-30T14:31:44.634Z,24.20
2019-01-30T14:34:12.166Z,21.97
2019-01-30T14:36:39.993Z,25.43
2019-01-30T14:39:07.828Z,23.23
2019-01-30T14:41:35.200Z,25.30
2019-01-30T14:44:02.590Z,16.63
2019-01-30T14:46:30.193Z,16.87
2019-01-30T14:52:07.678Z,21.07
2019-01-30T14:54:35.039Z,18.17
2019-01-30T14:57:03.236Z,16.27
2019-01-30T14:59:30.578Z,17.07
2019-01-30T15:01:58.144Z,14.90
2019-01-30T15:04:25.517Z,14.47
2019-01-30T15:06:53.207Z,14.43
2019-01-30T15:09:20.571Z,13.23
2019-01-30T15:11:47.836Z,10.60
2019-01-30T15:14:15.119Z,13.70
2019-01-30T15:16:42.661Z,11.37
2019-01-30T15:19:10.021Z,13.47
2019-01-30T15:21:37.904Z,10.67
2019-01-30T15:24:05.537Z,17.07
2019-01-30T15:26:32.806Z,17.37
2019-01-30T15:29:00.590Z,15.07
2019-01-30T15:31:28.146Z,13.30
2019-01-30T15:33:55.529Z,14.47
2019-01-30T15:36:22.901Z,10.83
2019-01-30T15:38:50.198Z,13.30
2019-01-30T15:41:17.454Z,9.57
2019-01-30T15:43:44.834Z,10.67
2019-01-30T15:46:12.183Z,10.57
2019-01-30T15:48:39.601Z,13.93
2019-01-30T15:51:06.924Z,13.17
2019-01-30T15:53:34.179Z,14.07
2019-01-30T15:56:01.631Z,12.50
2019-01-30T15:58:29.031Z,15.20
2019-01-30T16:01:21.976Z,15.13
2019-01-30T16:03:49.219Z,21.63
2019-01-30T16:06:16.490Z,15.03
2019-01-30T16:08:43.803Z,13.53
2019-01-30T16:11:11.176Z,12.43
2019-01-30T16:13:38.562Z,14.60
2019-01-30T16:16:07.009Z,12.70
2019-01-30T16:18:36.655Z,18.90
2019-01-30T16:21:23.491Z,15.33
2019-01-30T16:23:51.124Z,14.80
2019-01-30T16:26:18.398Z,21.20
2019-01-30T16:28:45.794Z,16.47
2019-01-30T16:31:13.141Z,20.23
2019-01-30T16:33:40.923Z,19.23
2019-01-30T16:36:08.313Z,17.77
2019-01-30T16:38:35.712Z,20.93
2019-01-30T16:41:03.353Z,18.07
2019-01-30T16:43:30.697Z,19.60
2019-01-30T16:45:58.001Z,20.60
2019-01-30T16:48:25.983Z,21.37
2019-01-30T16:50:53.329Z,16.80
2019-01-30T16:53:21.021Z,18.10
2019-01-30T16:55:48.400Z,21.70
2019-01-30T16:58:15.768Z,23.07
2019-01-30T17:00:43.051Z,25.73
2019-01-30T17:03:10.423Z,19.90
2019-01-30T17:05:37.790Z,26.47
2019-01-30T17:08:05.453Z,20.47
2019-01-30T17:10:33.082Z,22.20
2019-01-30T17:13:00.530Z,23.20
2019-01-30T17:15:28.742Z,21.20
2019-01-30T17:17:56.150Z,19.70
2019-01-30T17:20:24.627Z,16.67
2019-01-30T17:22:51.901Z,16.80
2019-01-30T17:25:19.272Z,18.30
2019-01-30T17:27:46.847Z,18.47
2019-01-30T17:30:15.672Z,10.83
2019-01-30T17:32:43.330Z,15.37
2019-01-30T17:35:10.794Z,12.80
2019-01-30T17:37:38.064Z,14.80
2019-01-30T17:40:06.400Z,9.37
2019-01-30T17:42:33.994Z,12.07
2019-01-30T17:45:01.324Z,17.73
2019-01-30T17:47:28.880Z,16.90
2019-01-30T17:49:58.760Z,14.33
2019-01-30T17:52:25.290Z,10.93
2019-01-30T17:54:52.710Z,14.77
2019-01-30T17:57:20.055Z,14.73
2019-01-30T17:59:47.321Z,14.73
2019-01-30T18:02:14.698Z,15.33
2019-01-30T18:04:41.986Z,10.33
2019-01-30T18:07:09.231Z,19.83
2019-01-30T18:09:36.525Z,16.17
2019-01-30T18:12:03.791Z,10.17
2019-01-30T18:14:31.079Z,14.93
2019-01-30T18:16:58.374Z,12.63
2019-01-30T18:19:26.024Z,12.67
2019-01-30T18:21:53.353Z,15.17
2019-01-30T18:24:20.729Z,17.00
2019-01-30T18:26:48.122Z,13.90
2019-01-30T18:29:15.561Z,12.80
2019-01-30T18:31:43.190Z,15.10
2019-01-30T18:34:10.700Z,21.57
2019-01-30T18:36:41.212Z,9.87
2019-01-30T18:39:07.857Z,21.43
2019-01-30T18:41:35.243Z,17.17
2019-01-30T18:44:02.623Z,17.23
2019-01-30T18:46:29.959Z,18.90
2019-01-30T18:48:57.332Z,16.67
2019-01-30T18:51:25.307Z,14.67
2019-01-30T18:53:53.002Z,21.30
2019-01-30T18:56:20.285Z,18.90
2019-01-30T18:58:48.011Z,18.43
2019-01-30T19:01:15.379Z,16.83
2019-01-30T19:03:42.911Z,21.83
2019-01-30T19:06:10.234Z,23.50
2019-01-30T19:08:37.625Z,20.17
2019-01-30T19:11:04.974Z,21.63
2019-01-30T19:13:32.231Z,18.07
2019-01-30T19:15:59.502Z,21.60
2019-01-30T19:18:27.528Z,17.20
2019-01-30T19:20:54.930Z,26.50
2019-01-30T19:23:22.288Z,21.53
2019-01-30T19:25:49.578Z,25.93
2019-01-30T19:28:16.889Z,24.90
2019-01-30T19:30:45.188Z,31.10
2019-01-30T19:33:16.700Z,33.33
2019-01-30T19:35:44.066Z,41.00
2019-01-30T19:38:11.453Z,34.63
2019-01-30T19:40:38.739Z,33.20
2019-01-30T19:43:06.372Z,34.70
2019-01-30T19:45:33.627Z,32.60
2019-01-30T19:48:00.995Z,40.53
2019-01-30T19:50:28.859Z,29.87
2019-01-30T19:52:56.833Z,31.50
2019-01-30T19:55:24.198Z,39.17
2019-01-30T19:57:51.822Z,32.10
2019-01-30T20:00:20.160Z,34.50
2019-01-30T20:02:47.521Z,38.03
2019-01-30T20:05:14.781Z,37.30
2019-01-30T20:07:42.025Z,39.57
2019-01-30T20:10:10.912Z,47.43
2019-01-30T20:12:38.215Z,42.77
2019-01-30T20:15:06.160Z,40.53
2019-01-30T20:17:33.460Z,44.73
2019-01-30T20:20:00.869Z,54.80
2019-01-30T20:22:28.138Z,49.23
2019-01-30T20:24:55.487Z,50.80
2019-01-30T20:27:22.820Z,41.87
2019-01-30T20:29:50.096Z,43.97
2019-01-30T20:32:17.524Z,44.87
2019-01-30T20:34:44.896Z,45.53
2019-01-30T20:37:12.153Z,45.43
2019-01-30T20:39:39.432Z,49.10
2019-01-30T20:42:07.062Z,43.27
2019-01-30T20:44:34.326Z,45.60
2019-01-30T20:47:01.944Z,45.40
2019-01-30T20:49:29.305Z,38.00
2019-01-30T20:51:56.680Z,40.80
2019-01-30T20:54:24.741Z,42.53
2019-01-30T20:56:52.185Z,43.37
2019-01-30T20:59:19.526Z,46.87
2019-01-30T21:01:46.796Z,40.43
2019-01-30T21:04:14.231Z,34.13
2019-01-30T21:06:41.627Z,37.83
2019-01-30T21:09:08.972Z,34.17
2019-01-30T21:11:36.257Z,30.33
2019-01-30T21:14:03.777Z,26.93
2019-01-30T21:16:31.058Z,31.50
2019-01-30T21:18:58.353Z,36.00
2019-01-30T21:21:25.704Z,32.07
2019-01-30T21:23:53.348Z,32.63
2019-01-30T21:26:20.631Z,29.10
2019-01-30T21:28:47.894Z,33.03
2019-01-30T21:31:15.260Z,33.73
2019-01-30T21:33:42.547Z,31.47
2019-01-30T21:36:10.167Z,32.27
2019-01-30T21:38:37.463Z,32.87
2019-01-30T21:41:04.731Z,33.70
2019-01-30T21:43:32.003Z,32.83
2019-01-30T21:45:59.642Z,27.10
2019-01-30T21:48:27.005Z,35.23
2019-01-30T21:50:54.669Z,38.17
2019-01-30T21:53:22.004Z,36.90
2019-01-30T21:55:49.264Z,34.33
2019-01-30T21:58:16.552Z,39.30
2019-01-30T22:00:43.821Z,36.40
2019-01-30T22:03:11.347Z,37.57
2019-01-30T22:05:38.644Z,36.23
2019-01-30T22:08:06.277Z,34.27
2019-01-30T22:10:33.900Z,39.70
2019-01-30T22:13:01.248Z,46.90
2019-01-30T22:15:28.530Z,32.43
2019-01-30T22:17:55.941Z,39.47
2019-01-30T22:20:23.797Z,38.40
2019-01-30T22:22:51.724Z,46.03
2019-01-30T22:25:20.662Z,38.33
2019-01-30T22:27:48.120Z,46.30
2019-01-30T22:30:17.398Z,55.90
2019-01-30T22:32:44.682Z,45.17
2019-01-30T22:35:11.944Z,49.33
2019-01-30T22:37:39.316Z,48.17
2019-01-30T22:40:07.220Z,53.03
2019-01-30T22:42:34.472Z,54.77
2019-01-30T22:45:02.137Z,52.10
2019-01-30T22:47:29.380Z,52.33
2019-01-30T22:49:56.944Z,54.77
2019-01-30T22:52:24.242Z,54.93
2019-01-30T22:54:51.639Z,44.37
2019-01-30T22:57:19.246Z,46.07
2019-01-30T22:59:46.514Z,49.77
2019-01-30T23:02:13.899Z,42.77
2019-01-30T23:04:53.024Z,45.63
2019-01-30T23:07:42.575Z,44.27
2019-01-30T23:10:29.149Z,40.60
2019-01-30T23:13:22.208Z,46.23
2019-01-30T23:15:59.013Z,41.90
2019-01-30T23:18:48.324Z,47.77
2019-01-30T23:21:17.971Z,41.17
2019-01-30T23:24:02.675Z,47.17
2019-01-30T23:26:32.429Z,45.30
2019-01-30T23:29:17.464Z,44.27
2019-01-30T23:32:04.234Z,42.80
2019-01-30T23:34:46.120Z,44.47
2019-01-30T23:37:18.147Z,46.23
2019-01-30T23:40:03.652Z,43.60
2019-01-30T23:42:56.789Z,45.63
2019-01-30T23:45:49.738Z,46.67
2019-01-30T23:48:24.369Z,45.33
2019-01-30T23:51:06.129Z,41.03
2019-01-30T23:53:56.030Z,44.47
2019-01-30T23:56:45.883Z,40.00
2019-01-30T23:59:20.354Z,46.73
